Time;durP1;ratioP1;P1;durP2;ratioP2;P2;SDS_P1;SDS_P2;PMS_P1;PMS_P2;Temp;Humidity;BMP_temperature;BMP_pressure;BME280_temperature;BME280_humidity;BME280_pressure;Samples;Min_cycle;Max_cycle;Signal;HPM_P1;HPM_P2
2022/10/11 04:06:08;;;;;;;15.30;8.70;;;14.10;99.90;;;;;;4953899;28;20508;-67
2022/10/11 04:08:34;;;;;;;11.10;8.07;;;14.10;99.90;;;;;;4956316;28;20475;-67
2022/10/11 04:10:59;;;;;;;17.63;8.57;;;14.10;99.90;;;;;;4956314;28;20187;-67
2022/10/11 04:13:25;;;;;;;16.47;9.80;;;14.20;99.90;;;;;;5488819;23;20214;-67
2022/10/11 04:15:50;;;;;;;16.60;10.87;;;14.10;99.90;;;;;;4994340;28;20208;-67
2022/10/11 04:18:16;;;;;;;14.40;10.03;;;14.20;99.90;;;;;;4994032;28;20182;-67
2022/10/11 04:20:41;;;;;;;22.43;9.90;;;14.20;99.90;;;;;;4994281;28;20175;-67
2022/10/11 04:23:07;;;;;;;16.27;9.90;;;14.20;99.90;;;;;;4994249;28;20252;-67
2022/10/11 04:25:33;;;;;;;16.47;11.50;;;14.20;99.90;;;;;;4994790;28;20191;-67
2022/10/11 04:27:58;;;;;;;16.07;9.63;;;14.20;99.90;;;;;;4994326;28;20179;-67
2022/10/11 04:30:24;;;;;;;19.07;10.57;;;14.20;99.90;;;;;;4993207;28;20689;-67
2022/10/11 04:32:49;;;;;;;19.93;9.60;;;14.20;99.90;;;;;;4994026;28;20236;-67
2022/10/11 04:35:15;;;;;;;16.63;9.93;;;14.10;99.90;;;;;;4993382;28;20238;-68
2022/10/11 04:37:41;;;;;;;18.40;10.30;;;14.20;99.90;;;;;;4994434;28;20195;-68
2022/10/11 04:40:07;;;;;;;14.73;9.63;;;14.20;99.90;;;;;;4994103;28;20578;-68
2022/10/11 04:42:33;;;;;;;14.33;10.30;;;14.20;99.90;;;;;;4976566;28;20226;-68
2022/10/11 04:44:59;;;;;;;15.77;9.80;;;14.20;99.90;;;;;;4994419;28;20589;-68
2022/10/11 04:47:24;;;;;;;17.47;11.03;;;14.20;99.90;;;;;;4994173;28;20931;-67
2022/10/11 04:49:50;;;;;;;14.57;9.90;;;14.20;99.90;;;;;;4993850;28;20245;-67
2022/10/11 04:52:16;;;;;;;12.50;9.20;;;14.20;99.90;;;;;;4994265;28;20163;-67
2022/10/11 04:54:42;;;;;;;14.97;10.80;;;14.20;99.90;;;;;;4993841;28;20195;-67
2022/10/11 04:57:07;;;;;;;19.40;12.10;;;14.20;99.90;;;;;;4994222;28;20174;-67
2022/10/11 04:59:33;;;;;;;18.57;11.73;;;14.20;99.90;;;;;;4993849;28;20198;-67
2022/10/11 05:01:58;;;;;;;25.10;11.93;;;14.20;99.90;;;;;;4994066;28;20191;-67
2022/10/11 05:04:24;;;;;;;17.60;9.77;;;14.20;99.90;;;;;;4993697;28;20287;-67
2022/10/11 05:06:50;;;;;;;13.60;9.63;;;14.20;99.90;;;;;;4993655;28;20199;-67
2022/10/11 05:09:15;;;;;;;16.03;9.50;;;14.20;99.90;;;;;;4994106;28;20250;-67
2022/10/11 05:11:41;;;;;;;15.47;8.47;;;14.20;99.90;;;;;;4993442;28;20653;-66
2022/10/11 05:14:06;;;;;;;12.80;8.57;;;14.10;99.90;;;;;;4993338;28;20281;-67
2022/10/11 05:16:32;;;;;;;13.20;8.90;;;14.20;99.90;;;;;;4994116;28;20170;-67
2022/10/11 05:18:57;;;;;;;19.13;10.70;;;14.20;99.90;;;;;;4993763;28;20176;-67
2022/10/11 05:21:26;;;;;;;16.67;10.73;;;14.10;99.90;;;;;;4993758;28;20178;-68
2022/10/11 05:23:54;;;;;;;14.17;9.97;;;14.10;99.90;;;;;;4994022;28;20218;-67
2022/10/11 05:26:21;;;;;;;21.63;11.20;;;14.10;99.90;;;;;;4994383;28;20442;-67
2022/10/11 05:28:47;;;;;;;16.20;9.33;;;14.10;99.90;;;;;;4993778;28;20422;-67
2022/10/11 05:31:12;;;;;;;15.30;9.77;;;14.10;99.90;;;;;;4996763;28;20468;-67
2022/10/11 05:33:38;;;;;;;17.70;9.90;;;14.00;99.90;;;;;;4997357;28;20434;-67
2022/10/11 05:36:05;;;;;;;14.87;9.53;;;14.00;99.90;;;;;;4997707;28;20258;-67
2022/10/11 05:38:31;;;;;;;16.93;9.33;;;14.00;99.90;;;;;;4992588;28;20426;-69
2022/10/11 05:41:01;;;;;;;18.43;10.03;;;14.00;99.90;;;;;;4997315;28;20401;-66
2022/10/11 05:43:27;;;;;;;14.90;10.60;;;14.00;99.90;;;;;;4996479;28;20515;-66
2022/10/11 05:45:53;;;;;;;16.43;9.73;;;14.10;99.90;;;;;;4997023;28;20393;-67
2022/10/11 05:48:19;;;;;;;18.83;9.80;;;14.00;99.90;;;;;;4979859;28;20421;-67
2022/10/11 05:50:44;;;;;;;16.60;10.43;;;14.10;99.90;;;;;;4996774;28;20426;-67
2022/10/11 05:53:10;;;;;;;20.63;11.40;;;14.10;99.90;;;;;;4997073;28;20422;-67
2022/10/11 05:55:40;;;;;;;14.40;8.67;;;14.10;99.90;;;;;;4997007;28;20191;-67
2022/10/11 05:58:08;;;;;;;17.13;10.00;;;14.10;99.90;;;;;;4996539;28;20172;-67
2022/10/11 06:00:36;;;;;;;16.20;9.43;;;14.10;99.90;;;;;;4994318;28;20426;-66
2022/10/11 06:03:03;;;;;;;12.33;9.37;;;14.10;99.90;;;;;;4995944;28;20494;-67
2022/10/11 06:05:29;;;;;;;14.27;9.47;;;14.10;99.90;;;;;;4997235;28;20433;-67
2022/10/11 06:07:56;;;;;;;15.23;8.37;;;14.10;99.90;;;;;;4997081;28;20468;-67
2022/10/11 06:10:22;;;;;;;13.47;8.90;;;14.10;99.90;;;;;;4996832;28;20222;-67
2022/10/11 06:12:48;;;;;;;15.97;8.87;;;14.10;99.90;;;;;;4995716;28;20777;-67
2022/10/11 06:15:13;;;;;;;17.83;9.70;;;14.10;99.90;;;;;;4996119;28;20202;-67
2022/10/11 06:17:39;;;;;;;18.47;9.40;;;14.10;99.90;;;;;;4996647;28;20179;-66
2022/10/11 06:20:05;;;;;;;23.80;10.97;;;14.10;99.90;;;;;;4997219;28;20253;-66
2022/10/11 06:22:31;;;;;;;18.83;10.10;;;14.00;99.90;;;;;;4995105;28;20254;-67
2022/10/11 06:24:56;;;;;;;16.23;9.50;;;14.00;99.90;;;;;;4995715;28;20912;-67
2022/10/11 06:27:22;;;;;;;13.57;9.30;;;14.00;99.90;;;;;;4996588;28;20179;-67
2022/10/11 06:29:48;;;;;;;18.80;10.57;;;14.00;99.90;;;;;;4996787;28;20203;-67
2022/10/11 06:32:13;;;;;;;18.50;10.60;;;14.00;99.90;;;;;;4997001;28;20174;-67
2022/10/11 06:34:39;;;;;;;15.13;9.07;;;14.00;99.90;;;;;;4996298;28;20195;-67
2022/10/11 06:37:05;;;;;;;16.47;9.90;;;14.00;99.90;;;;;;4996463;28;20175;-67
2022/10/11 06:39:31;;;;;;;15.20;9.17;;;14.00;99.90;;;;;;4996667;28;20191;-67
2022/10/11 06:41:56;;;;;;;26.13;10.50;;;14.00;99.90;;;;;;4995368;28;20469;-67
2022/10/11 06:44:22;;;;;;;16.40;10.07;;;14.00;99.90;;;;;;4996244;28;20205;-67
2022/10/11 06:46:48;;;;;;;15.27;9.80;;;13.90;99.90;;;;;;4996688;28;20214;-67
2022/10/11 06:49:13;;;;;;;15.00;10.33;;;14.00;99.90;;;;;;4996357;28;20251;-67
2022/10/11 06:51:39;;;;;;;14.50;9.87;;;13.90;99.90;;;;;;4996487;28;20234;-67
2022/10/11 06:54:04;;;;;;;11.77;8.93;;;14.00;99.90;;;;;;4995961;28;20306;-67
2022/10/11 06:56:30;;;;;;;13.33;7.50;;;13.90;99.90;;;;;;4995929;28;20221;-67
2022/10/11 06:58:58;;;;;;;17.47;10.40;;;14.00;99.90;;;;;;4996476;28;20175;-66
2022/10/11 07:01:24;;;;;;;15.60;9.47;;;14.00;99.90;;;;;;4997033;28;20440;-67
2022/10/11 07:03:52;;;;;;;14.47;7.87;;;14.00;99.90;;;;;;4996103;28;20485;-68
2022/10/11 07:06:21;;;;;;;18.87;9.80;;;14.10;99.90;;;;;;4995861;28;20406;-68
2022/10/11 07:08:47;;;;;;;13.87;8.57;;;14.10;99.90;;;;;;4996288;28;20756;-67
2022/10/11 07:11:18;;;;;;;15.10;9.93;;;14.10;99.90;;;;;;4996135;28;20497;-67
2022/10/11 07:13:55;;;;;;;12.70;9.03;;;14.10;99.90;;;;;;4995343;28;20550;-67
2022/10/11 07:16:22;;;;;;;15.73;10.17;;;14.20;99.90;;;;;;4995814;28;20429;-67
2022/10/11 07:18:51;;;;;;;10.77;8.63;;;14.20;99.90;;;;;;4995925;28;20897;-66
2022/10/11 07:21:17;;;;;;;14.30;9.17;;;14.20;99.90;;;;;;4995969;28;20889;-67
2022/10/11 07:23:42;;;;;;;11.60;7.73;;;14.20;99.90;;;;;;4995253;28;20462;-67
2022/10/11 07:26:09;;;;;;;13.40;9.20;;;14.20;99.90;;;;;;4995421;28;20172;-67
2022/10/11 07:28:36;;;;;;;14.47;10.37;;;14.30;99.90;;;;;;4995565;28;20171;-66
2022/10/11 07:31:11;;;;;;;12.57;9.13;;;14.30;99.90;;;;;;4995524;28;20913;-66
2022/10/11 07:33:36;;;;;;;17.90;9.00;;;14.30;99.90;;;;;;4995328;28;20444;-67
2022/10/11 07:36:04;;;;;;;14.20;9.03;;;14.30;99.90;;;;;;4995220;28;20923;-66
2022/10/11 07:38:30;;;;;;;11.40;7.20;;;14.30;99.90;;;;;;4995130;28;20430;-67
2022/10/11 07:40:56;;;;;;;9.57;7.00;;;14.30;99.90;;;;;;4995084;28;20908;-66
2022/10/11 07:43:22;;;;;;;17.07;9.90;;;14.30;99.90;;;;;;4994897;28;20485;-67
2022/10/11 07:45:53;;;;;;;13.60;7.73;;;14.40;99.90;;;;;;4995512;28;20417;-67
2022/10/11 07:48:18;;;;;;;11.17;8.60;;;14.50;99.90;;;;;;4995303;28;20464;-67
2022/10/11 07:50:44;;;;;;;14.00;8.53;;;14.40;99.90;;;;;;4995019;28;20426;-66
2022/10/11 07:53:10;;;;;;;14.23;10.47;;;14.40;99.90;;;;;;4994806;28;20564;-68
2022/10/11 07:55:39;;;;;;;12.90;8.33;;;14.40;99.90;;;;;;4995032;28;20542;-67
2022/10/11 07:58:06;;;;;;;11.23;7.27;;;14.50;99.90;;;;;;4995101;28;20688;-67
2022/10/11 08:00:32;;;;;;;10.93;8.40;;;14.50;99.90;;;;;;4994919;28;20875;-67
2022/10/11 08:03:01;;;;;;;15.40;8.77;;;14.60;99.90;;;;;;4994519;28;20450;-67
2022/10/11 08:05:27;;;;;;;10.57;8.27;;;14.60;99.90;;;;;;4994800;28;20438;-66
2022/10/11 08:07:52;;;;;;;13.23;8.10;;;14.60;99.90;;;;;;4995299;28;20407;-66
2022/10/11 08:10:19;;;;;;;12.90;8.77;;;14.70;99.90;;;;;;4994551;28;20179;-67
2022/10/11 08:12:46;;;;;;;13.57;8.43;;;14.70;99.90;;;;;;4994479;28;20176;-67
2022/10/11 08:15:30;;;;;;;14.13;7.70;;;14.80;99.90;;;;;;4954533;28;20455;-66
2022/10/11 08:17:55;;;;;;;17.53;8.87;;;14.80;99.90;;;;;;4994573;28;20420;-67
2022/10/11 08:20:21;;;;;;;16.30;9.40;;;14.90;99.90;;;;;;4994571;28;20638;-66
2022/10/11 08:22:47;;;;;;;10.67;8.33;;;14.90;99.90;;;;;;4994367;28;20295;-67
2022/10/11 08:25:12;;;;;;;14.60;8.80;;;15.00;99.90;;;;;;4994705;28;20639;-66
2022/10/11 08:27:38;;;;;;;14.93;8.77;;;15.10;99.90;;;;;;4994454;28;20259;-66
2022/10/11 08:30:04;;;;;;;8.60;6.83;;;15.20;99.90;;;;;;4994607;28;20630;-67
2022/10/11 08:32:30;;;;;;;12.53;7.83;;;15.20;99.90;;;;;;4993663;28;20196;-67
2022/10/11 08:34:56;;;;;;;8.53;7.17;;;15.30;99.90;;;;;;4994330;28;20447;-67
2022/10/11 08:37:21;;;;;;;12.67;8.13;;;15.30;99.90;;;;;;4994607;28;20581;-66
2022/10/11 08:39:47;;;;;;;12.00;8.37;;;15.30;99.90;;;;;;4994464;28;20230;-67
2022/10/11 08:42:16;;;;;;;12.83;8.03;;;15.30;99.90;;;;;;4994181;28;20251;-67
2022/10/11 08:44:47;;;;;;;12.00;7.53;;;15.40;99.90;;;;;;4993727;28;20198;-66
2022/10/11 08:47:41;;;;;;;8.80;7.70;;;15.40;99.90;;;;;;4994205;28;20454;-67
2022/10/11 08:50:17;;;;;;;17.63;8.93;;;15.40;99.90;;;;;;4994355;28;20420;-67
2022/10/11 08:53:28;;;;;;;12.43;7.73;;;15.50;99.90;;;;;;4993544;28;20916;-68
2022/10/11 08:55:54;;;;;;;10.60;7.60;;;15.50;99.90;;;;;;4980235;28;20517;-67
2022/10/11 08:58:24;;;;;;;10.17;7.90;;;15.60;99.90;;;;;;4994260;28;20986;-67
2022/10/11 09:00:55;;;;;;;11.93;7.93;;;15.70;99.90;;;;;;4994252;28;20420;-67
2022/10/11 09:03:38;;;;;;;8.13;6.97;;;15.70;99.90;;;;;;4993214;28;20471;-68
2022/10/11 09:06:16;;;;;;;8.10;6.90;;;15.70;99.90;;;;;;4993702;28;20424;-67
2022/10/11 09:08:56;;;;;;;13.50;7.30;;;15.80;99.90;;;;;;4994114;28;20444;-67
2022/10/11 09:11:45;;;;;;;9.90;6.93;;;15.80;99.90;;;;;;4994099;28;20894;-66
2022/10/11 09:14:40;;;;;;;11.53;8.13;;;15.80;99.90;;;;;;4993108;28;20900;-67
2022/10/11 09:17:15;;;;;;;9.53;6.30;;;15.90;99.90;;;;;;4994043;28;20436;-67
2022/10/11 09:19:55;;;;;;;8.90;7.20;;;16.00;99.90;;;;;;4994028;28;20427;-68
2022/10/11 09:22:23;;;;;;;10.87;7.67;;;16.00;99.90;;;;;;4993589;28;20465;-68
2022/10/11 09:25:17;;;;;;;13.03;8.03;;;15.90;99.90;;;;;;4993286;28;20444;-67
2022/10/11 09:27:59;;;;;;;12.40;8.50;;;16.00;99.90;;;;;;4993870;28;20400;-67
2022/10/11 09:30:24;;;;;;;15.00;9.10;;;15.90;99.90;;;;;;4993896;28;20418;-67
2022/10/11 09:33:11;;;;;;;8.80;7.10;;;15.80;99.90;;;;;;4992977;28;20493;-68
2022/10/11 09:35:41;;;;;;;9.27;7.03;;;15.80;99.90;;;;;;4993799;28;20185;-67
2022/10/11 09:38:20;;;;;;;13.93;7.93;;;15.90;99.90;;;;;;4993833;28;20392;-67
2022/10/11 09:41:17;;;;;;;11.53;7.10;;;15.90;99.90;;;;;;4993614;28;20390;-69
2022/10/11 09:43:48;;;;;;;10.00;7.57;;;15.90;99.90;;;;;;4979124;28;20469;-67
2022/10/11 09:46:27;;;;;;;10.10;7.30;;;16.00;99.90;;;;;;4993726;28;20417;-67
2022/10/11 09:48:55;;;;;;;14.03;7.10;;;15.90;99.90;;;;;;4993669;28;20508;-68
2022/10/11 09:51:24;;;;;;;9.10;7.97;;;15.90;99.90;;;;;;4993349;28;20781;-67
2022/10/11 09:53:53;;;;;;;11.70;7.90;;;15.90;99.90;;;;;;4993290;28;20798;-68
2022/10/11 09:56:20;;;;;;;8.60;6.27;;;15.90;99.90;;;;;;4993730;28;20401;-69
2022/10/11 09:58:46;;;;;;;10.57;7.87;;;15.90;99.90;;;;;;4993877;28;20392;-68
2022/10/11 10:01:22;;;;;;;13.40;8.83;;;15.90;99.90;;;;;;4993250;28;20422;-68
2022/10/11 10:04:02;;;;;;;14.90;7.90;;;15.90;99.90;;;;;;4973538;28;20296;-68
2022/10/11 10:06:27;;;;;;;10.37;7.93;;;15.90;99.90;;;;;;4974209;28;20417;-68
2022/10/11 10:08:54;;;;;;;11.47;8.13;;;15.80;99.90;;;;;;4974069;28;20403;-68
2022/10/11 10:11:20;;;;;;;9.50;7.47;;;15.80;99.90;;;;;;4975042;28;20191;-69
2022/10/11 10:13:52;;;;;;;9.80;7.17;;;15.70;99.90;;;;;;4992457;28;20466;-67
2022/10/11 10:16:27;;;;;;;8.43;6.80;;;15.70;99.90;;;;;;4994934;28;20419;-67
2022/10/11 10:18:55;;;;;;;16.37;8.07;;;15.70;99.90;;;;;;4996985;28;20402;-68
2022/10/11 10:21:31;;;;;;;9.53;6.50;;;15.70;99.90;;;;;;4996397;28;20407;-67
2022/10/11 10:24:01;;;;;;;14.57;8.97;;;15.80;99.90;;;;;;4976796;28;20452;-67
2022/10/11 10:26:27;;;;;;;10.93;7.90;;;15.80;99.90;;;;;;4977247;28;20742;-68
2022/10/11 10:29:15;;;;;;;9.77;7.67;;;15.90;99.90;;;;;;4976908;28;20425;-67
2022/10/11 10:31:49;;;;;;;10.90;7.67;;;16.00;99.90;;;;;;4978903;28;20568;-68
2022/10/11 10:34:22;;;;;;;17.63;9.00;;;16.10;99.90;;;;;;4996110;28;20427;-67
2022/10/11 10:37:07;;;;;;;9.93;6.40;;;16.20;99.90;;;;;;4996637;28;20383;-68
2022/10/11 10:39:40;;;;;;;11.83;7.30;;;16.40;99.90;;;;;;4996391;28;20407;-68
2022/10/11 10:42:15;;;;;;;13.13;7.73;;;16.50;99.90;;;;;;4996265;28;20456;-68
2022/10/11 10:44:42;;;;;;;10.67;7.77;;;16.50;99.90;;;;;;4978543;28;20536;-67
2022/10/11 10:47:23;;;;;;;10.43;8.03;;;16.60;99.90;;;;;;4995899;28;20456;-68
2022/10/11 10:50:24;;;;;;;11.00;7.40;;;16.60;99.90;;;;;;4996468;28;20938;-67
2022/10/11 10:53:22;;;;;;;12.07;6.70;;;16.60;99.90;;;;;;4995547;28;20426;-67
2022/10/11 10:55:58;;;;;;;16.93;8.10;;;16.60;99.90;;;;;;4996358;28;20386;-67
2022/10/11 10:58:47;;;;;;;7.60;6.33;;;16.60;99.90;;;;;;4996307;28;20460;-67
2022/10/11 11:01:32;;;;;;;11.17;7.73;;;16.60;99.90;;;;;;4996440;28;20419;-67
2022/10/11 11:04:13;;;;;;;8.60;7.23;;;16.60;99.90;;;;;;4995111;28;20474;-67
2022/10/11 11:06:48;;;;;;;8.13;6.63;;;16.60;99.90;;;;;;4995751;28;20414;-67
2022/10/11 11:09:38;;;;;;;9.67;7.10;;;16.70;99.90;;;;;;4996276;28;20417;-67
2022/10/11 11:12:23;;;;;;;7.30;5.20;;;16.80;99.90;;;;;;4995481;28;20474;-67
2022/10/11 11:15:03;;;;;;;8.93;7.50;;;16.80;99.90;;;;;;4995403;28;20828;-68
2022/10/11 11:17:54;;;;;;;10.60;6.90;;;16.90;99.90;;;;;;4995783;28;20417;-68
2022/10/11 11:20:52;;;;;;;9.43;6.20;;;17.00;99.90;;;;;;4995988;28;20421;-67
2022/10/11 11:23:38;;;;;;;8.67;6.27;;;17.10;99.90;;;;;;4941263;28;20464;-67
2022/10/11 11:26:17;;;;;;;9.20;6.30;;;17.20;99.90;;;;;;4995964;28;20760;-68
2022/10/11 11:28:59;;;;;;;9.20;6.50;;;17.20;99.90;;;;;;4995413;28;20389;-68
2022/10/11 11:31:43;;;;;;;7.07;5.27;;;17.10;99.90;;;;;;4995634;28;20429;-67
2022/10/11 11:34:17;;;;;;;9.97;6.90;;;17.10;99.90;;;;;;4995006;28;20913;-67
2022/10/11 11:36:50;;;;;;;6.97;6.33;;;17.10;99.90;;;;;;4995667;28;20410;-67
2022/10/11 11:39:20;;;;;;;6.80;5.73;;;17.20;99.90;;;;;;4995611;28;20435;-67
2022/10/11 11:42:09;;;;;;;10.43;6.33;;;17.30;99.90;;;;;;4995430;28;20385;-68
2022/10/11 11:44:41;;;;;;;10.73;5.80;;;17.40;99.90;;;;;;4975478;28;20838;-66
2022/10/11 11:47:30;;;;;;;6.50;5.60;;;17.50;99.90;;;;;;4989126;28;20407;-67
2022/10/11 11:50:04;;;;;;;8.13;6.80;;;17.60;99.90;;;;;;4995396;28;20385;-67
2022/10/11 11:52:43;;;;;;;6.20;5.70;;;17.70;99.90;;;;;;4994933;28;20387;-67
2022/10/11 11:55:32;;;;;;;6.30;5.50;;;17.80;99.90;;;;;;4995176;28;20417;-67
2022/10/11 11:58:00;;;;;;;9.90;5.20;;;17.90;99.90;;;;;;4994848;28;20426;-67
2022/10/11 12:00:33;;;;;;;6.47;5.87;;;17.90;99.90;;;;;;4995165;28;20486;-67
2022/10/11 12:03:12;;;;;;;8.27;5.50;;;17.80;99.90;;;;;;4994732;28;20775;-67
2022/10/11 12:05:38;;;;;;;7.23;4.23;;;17.70;99.90;;;;;;4995121;28;20411;-66
2022/10/11 12:08:22;;;;;;;9.50;5.33;;;17.80;99.90;;;;;;4994556;28;20425;-68
2022/10/11 12:10:54;;;;;;;8.40;6.90;;;17.80;99.90;;;;;;4994965;28;20182;-67
2022/10/11 12:13:50;;;;;;;28.03;9.80;;;17.80;99.90;;;;;;4994247;28;20438;-67
2022/10/11 12:16:16;;;;;;;5.33;4.93;;;17.90;99.90;;;;;;4974687;28;20447;-67
2022/10/11 12:18:58;;;;;;;10.07;5.07;;;17.90;99.90;;;;;;4994445;28;20458;-68
2022/10/11 12:21:33;;;;;;;8.43;6.03;;;17.90;99.90;;;;;;4993199;28;20429;-67
2022/10/11 12:24:31;;;;;;;8.10;5.10;;;17.90;99.90;;;;;;4992581;28;20465;-72
2022/10/11 12:26:57;;;;;;;11.80;5.80;;;17.80;99.90;;;;;;4991207;28;20770;-72
2022/10/11 12:29:45;;;;;;;9.27;6.43;;;17.80;99.90;;;;;;4993661;28;21003;-73
2022/10/11 12:32:33;;;;;;;5.73;4.63;;;17.80;99.90;;;;;;4931903;28;20434;-72
2022/10/11 12:35:32;;;;;;;6.73;6.10;;;17.80;99.90;;;;;;4985000;28;20477;-71
2022/10/11 12:38:12;;;;;;;9.17;5.57;;;17.90;99.90;;;;;;4994330;28;20410;-73
2022/10/11 12:40:45;;;;;;;6.23;5.63;;;18.00;99.90;;;;;;4993749;28;20402;-73
2022/10/11 12:43:14;;;;;;;8.00;5.50;;;18.00;99.90;;;;;;4993546;28;20469;-73
2022/10/11 12:45:42;;;;;;;5.80;5.20;;;18.10;99.90;;;;;;4994312;28;20410;-72
2022/10/11 12:48:30;;;;;;;7.40;6.20;;;18.10;99.90;;;;;;4993948;28;20920;-73
2022/10/11 12:51:20;;;;;;;8.27;5.90;;;18.20;99.90;;;;;;4994060;28;20437;-68
2022/10/11 12:54:15;;;;;;;6.43;5.30;;;18.20;99.90;;;;;;4993666;28;20454;-67
2022/10/11 12:57:03;;;;;;;5.40;4.90;;;18.20;99.90;;;;;;4976607;28;20433;-67
2022/10/11 12:59:31;;;;;;;6.97;5.80;;;18.40;99.90;;;;;;4935942;28;20481;-67
2022/10/11 13:02:00;;;;;;;6.10;4.83;;;18.40;99.90;;;;;;4974598;28;20411;-67
2022/10/11 13:04:32;;;;;;;7.53;5.80;;;18.30;99.90;;;;;;4974227;28;20439;-67
2022/10/11 13:07:10;;;;;;;6.60;5.10;;;18.40;99.90;;;;;;4974325;28;20412;-67
2022/10/11 13:09:38;;;;;;;8.13;5.10;;;18.50;99.90;;;;;;4970623;28;20986;-67
2022/10/11 13:12:11;;;;;;;10.27;7.40;;;18.40;99.90;;;;;;4994034;28;20774;-65
2022/10/11 13:14:43;;;;;;;5.87;5.20;;;18.50;99.90;;;;;;4993501;28;20816;-65
2022/10/11 13:17:20;;;;;;;9.50;5.20;;;18.70;99.90;;;;;;4994092;28;20403;-66
2022/10/11 13:19:57;;;;;;;8.40;5.63;;;18.80;99.90;;;;;;4993553;28;20469;-66
2022/10/11 13:22:23;;;;;;;7.60;5.47;;;18.80;99.90;;;;;;4993478;28;20473;-66
2022/10/11 13:24:49;;;;;;;5.33;4.23;;;18.90;99.90;;;;;;4993088;28;20526;-66
2022/10/11 13:27:23;;;;;;;6.13;4.70;;;19.10;99.90;;;;;;4984058;28;20646;-66
2022/10/11 13:29:52;;;;;;;5.37;4.80;;;19.20;99.90;;;;;;4987896;28;20706;-66
2022/10/11 13:32:22;;;;;;;6.40;5.70;;;19.20;99.90;;;;;;4993877;28;20395;-65
2022/10/11 13:34:52;;;;;;;7.73;7.00;;;19.00;99.90;;;;;;4993822;28;20439;-66
2022/10/11 13:37:21;;;;;;;5.17;4.77;;;18.90;99.90;;;;;;4993801;28;20388;-65
2022/10/11 13:39:49;;;;;;;5.70;5.10;;;18.80;99.90;;;;;;4993423;28;20431;-65
2022/10/11 13:42:17;;;;;;;11.83;7.63;;;18.70;99.90;;;;;;4993528;28;20454;-66
2022/10/11 13:44:44;;;;;;;8.77;5.37;;;18.70;99.90;;;;;;4993136;28;20401;-65
2022/10/11 13:47:19;;;;;;;5.50;5.00;;;18.60;99.90;;;;;;4993772;28;20762;-65
2022/10/11 13:49:59;;;;;;;6.13;5.20;;;18.40;99.90;;;;;;4993515;28;20433;-65
2022/10/11 13:52:24;;;;;;;7.60;5.53;;;18.40;99.90;;;;;;4996632;28;20414;-66
2022/10/11 13:55:08;;;;;;;6.57;5.90;;;18.20;99.90;;;;;;4997046;28;20493;-66
2022/10/11 13:57:45;;;;;;;8.27;5.20;;;18.10;99.90;;;;;;4997343;28;20314;-66
2022/10/11 14:00:14;;;;;;;8.60;5.30;;;17.90;99.90;;;;;;4979576;28;20434;-66
2022/10/11 14:03:06;;;;;;;8.50;6.00;;;17.90;99.90;;;;;;4996894;28;20458;-66
2022/10/11 14:05:36;;;;;;;7.97;5.13;;;17.80;99.90;;;;;;4997315;28;20475;-66
2022/10/11 14:08:06;;;;;;;6.10;5.50;;;17.70;99.90;;;;;;4996976;28;20406;-66
2022/10/11 14:10:32;;;;;;;7.20;5.43;;;17.70;99.90;;;;;;4996777;28;20429;-66
2022/10/11 14:13:40;;;;;;;6.10;5.00;;;17.80;99.90;;;;;;4996557;28;20485;-65
2022/10/11 14:16:27;;;;;;;5.37;4.30;;;17.80;99.90;;;;;;4997058;28;20456;-66
2022/10/11 14:18:59;;;;;;;5.70;4.87;;;17.80;99.90;;;;;;4996647;28;20565;-66
2022/10/11 14:21:46;;;;;;;5.80;5.27;;;17.90;99.90;;;;;;4996709;28;20411;-66
2022/10/11 14:24:13;;;;;;;5.83;5.00;;;17.90;99.90;;;;;;4976802;28;20437;-66
2022/10/11 14:26:41;;;;;;;6.00;5.10;;;17.80;99.90;;;;;;4977323;28;20433;-66
2022/10/11 14:29:28;;;;;;;6.20;5.10;;;17.70;99.90;;;;;;4977426;28;20865;-66
2022/10/11 14:32:29;;;;;;;5.97;5.37;;;17.60;99.90;;;;;;4980352;28;20743;-66
2022/10/11 14:34:55;;;;;;;5.87;5.13;;;17.50;99.90;;;;;;4945117;28;20557;-66
2022/10/11 14:37:21;;;;;;;7.73;5.70;;;17.40;99.90;;;;;;4996725;28;20385;-66
2022/10/11 14:39:47;;;;;;;7.63;5.50;;;17.40;99.90;;;;;;4996752;28;21033;-65
2022/10/11 14:42:13;;;;;;;7.53;5.93;;;17.40;99.90;;;;;;4996122;28;20646;-65
2022/10/11 14:44:39;;;;;;;9.90;5.57;;;17.40;99.90;;;;;;4995883;28;20230;-65
2022/10/11 14:47:05;;;;;;;14.20;6.40;;;17.40;99.90;;;;;;4996243;28;20805;-65
2022/10/11 14:49:34;;;;;;;5.70;4.60;;;17.30;99.90;;;;;;4996452;28;20399;-65
2022/10/11 14:52:01;;;;;;;11.40;5.60;;;17.30;99.90;;;;;;4996078;28;20485;-65
2022/10/11 14:54:28;;;;;;;7.93;5.83;;;17.30;99.90;;;;;;4995894;28;20558;-65
2022/10/11 14:56:56;;;;;;;6.90;4.90;;;17.20;99.90;;;;;;4996267;28;20403;-65
2022/10/11 14:59:24;;;;;;;7.13;5.40;;;17.20;99.90;;;;;;4995942;28;20976;-65
2022/10/11 15:01:52;;;;;;;10.73;6.20;;;17.10;99.90;;;;;;4995205;28;20796;-65
2022/10/11 15:04:19;;;;;;;8.70;5.73;;;17.10;99.90;;;;;;4995119;28;20469;-65
2022/10/11 15:06:45;;;;;;;9.80;7.00;;;17.00;99.90;;;;;;4994936;28;20435;-66
2022/10/11 15:09:10;;;;;;;11.80;5.20;;;17.00;99.90;;;;;;4996076;28;20406;-66
2022/10/11 15:11:37;;;;;;;7.00;6.30;;;16.90;99.90;;;;;;4995961;28;20194;-66
2022/10/11 15:14:04;;;;;;;8.67;6.00;;;16.80;99.90;;;;;;4994879;28;20211;-65
2022/10/11 15:16:30;;;;;;;7.57;6.17;;;16.70;99.90;;;;;;4995470;28;20452;-65
2022/10/11 15:18:56;;;;;;;7.50;4.80;;;16.70;99.90;;;;;;4995386;28;20849;-65
2022/10/11 15:21:24;;;;;;;8.20;6.20;;;16.70;99.90;;;;;;4995687;28;20497;-65
2022/10/11 15:23:51;;;;;;;6.17;5.57;;;16.60;99.90;;;;;;4994891;28;20211;-65
2022/10/11 15:26:25;;;;;;;8.37;5.67;;;16.50;99.90;;;;;;4995580;28;20432;-65
2022/10/11 15:28:52;;;;;;;7.10;5.63;;;16.50;99.90;;;;;;4995738;28;20400;-66
2022/10/11 15:31:17;;;;;;;8.00;6.07;;;16.50;99.90;;;;;;4995485;28;20409;-67
2022/10/11 15:33:43;;;;;;;7.50;6.07;;;16.40;99.90;;;;;;4994761;28;21039;-65
2022/10/11 15:36:14;;;;;;;10.23;6.70;;;16.40;99.90;;;;;;4988431;28;20652;-66
2022/10/11 15:38:42;;;;;;;9.30;5.17;;;16.30;99.90;;;;;;4995391;28;20192;-66
2022/10/11 15:41:11;;;;;;;6.73;6.03;;;16.30;99.90;;;;;;4994880;28;20443;-69
2022/10/11 15:43:38;;;;;;;8.63;5.30;;;16.20;99.90;;;;;;4993026;28;20477;-71
2022/10/11 15:46:03;;;;;;;12.30;7.90;;;16.20;99.90;;;;;;4994744;28;20431;-67
2022/10/11 15:48:29;;;;;;;11.93;7.43;;;16.10;99.90;;;;;;4995349;28;20387;-63
2022/10/11 15:50:55;;;;;;;7.83;5.90;;;16.10;99.90;;;;;;4994621;28;20532;-63
2022/10/11 15:53:27;;;;;;;11.27;7.50;;;16.10;99.90;;;;;;4994362;28;20201;-72
2022/10/11 15:55:55;;;;;;;7.43;5.13;;;16.00;99.90;;;;;;4994854;28;20188;-75
2022/10/11 15:58:23;;;;;;;7.53;5.60;;;15.90;99.90;;;;;;4994799;28;20412;-72
2022/10/11 16:00:52;;;;;;;8.10;7.07;;;15.80;99.90;;;;;;4993562;28;20432;-72
2022/10/11 16:03:19;;;;;;;9.53;5.80;;;15.70;99.90;;;;;;4985926;28;20518;-70
2022/10/11 16:05:45;;;;;;;7.10;5.90;;;15.60;99.90;;;;;;4989629;28;20929;-70
2022/10/11 16:08:12;;;;;;;11.83;7.23;;;15.60;99.90;;;;;;4994935;28;20408;-71
2022/10/11 16:10:38;;;;;;;10.50;6.37;;;15.60;99.90;;;;;;4978940;28;20423;-73
2022/10/11 16:13:04;;;;;;;12.40;6.60;;;15.60;99.90;;;;;;4997081;28;20464;-72
2022/10/11 16:15:30;;;;;;;6.17;4.83;;;15.50;99.90;;;;;;4976458;28;20446;-72
2022/10/11 16:17:56;;;;;;;11.17;6.77;;;15.50;99.90;;;;;;4994553;28;20418;-71
2022/10/11 16:20:23;;;;;;;7.87;5.67;;;15.40;99.90;;;;;;4993992;28;20183;-70
2022/10/11 16:22:50;;;;;;;6.50;4.90;;;15.40;99.90;;;;;;4993785;28;21088;-71
2022/10/11 16:25:16;;;;;;;10.37;6.33;;;15.40;99.90;;;;;;4993862;28;20435;-71
2022/10/11 16:27:43;;;;;;;6.00;4.77;;;15.30;99.90;;;;;;4994045;28;20430;-71
2022/10/11 16:30:10;;;;;;;6.63;4.63;;;15.30;99.90;;;;;;4993804;28;20423;-69
2022/10/11 16:32:37;;;;;;;7.60;4.83;;;15.20;99.90;;;;;;4993736;28;20446;-72
2022/10/11 16:35:04;;;;;;;8.07;6.87;;;15.20;99.90;;;;;;4993919;28;20984;-70
2022/10/11 16:37:31;;;;;;;10.37;6.37;;;15.10;99.90;;;;;;4993486;28;20441;-72
2022/10/11 16:39:56;;;;;;;7.60;5.40;;;15.10;99.90;;;;;;4993634;28;20418;-72
2022/10/11 16:42:22;;;;;;;7.20;5.43;;;15.00;99.90;;;;;;4993013;28;20474;-71
2022/10/11 16:44:48;;;;;;;6.07;5.43;;;14.90;99.90;;;;;;4993855;28;20199;-71
2022/10/11 16:47:14;;;;;;;8.40;5.80;;;14.90;99.90;;;;;;4993302;28;20427;-72
2022/10/11 16:49:40;;;;;;;6.10;5.17;;;14.90;99.90;;;;;;4993185;28;20218;-72
2022/10/11 16:52:09;;;;;;;8.33;5.37;;;14.80;99.90;;;;;;4993424;28;20430;-73
2022/10/11 16:54:36;;;;;;;8.77;5.20;;;14.80;99.90;;;;;;4992498;28;20926;-75
2022/10/11 16:57:02;;;;;;;6.83;5.80;;;14.80;99.90;;;;;;4992891;28;20423;-74
2022/10/11 16:59:28;;;;;;;6.53;5.37;;;14.70;99.90;;;;;;4993846;28;20462;-73
2022/10/11 17:01:54;;;;;;;7.63;5.47;;;14.70;99.90;;;;;;4993732;28;20403;-74
2022/10/11 17:04:20;;;;;;;6.40;5.00;;;14.70;99.90;;;;;;4993069;28;20532;-72
2022/10/11 17:06:46;;;;;;;62.00;31.97;;;14.60;99.90;;;;;;4993308;28;20485;-73